Time;durP1;ratioP1;P1;durP2;ratioP2;P2;SDS_P1;SDS_P2;PMS_P1;PMS_P2;Temp;Humidity;BMP_temperature;BMP_pressure;BME280_temperature;BME280_humidity;BME280_pressure;Samples;Min_cycle;Max_cycle;Signal;HPM_P1;HPM_P2
2023/04/15 00:00:51;;;;;;;6.80;5.43;;;;;;;13.55;49.00;93883.72;5108680;28;20209;-46
2023/04/15 00:03:19;;;;;;;13.00;5.37;;;;;;;13.52;49.04;93888.44;5112076;28;20211;-47
2023/04/15 00:05:46;;;;;;;9.73;5.70;;;;;;;13.49;49.45;93884.44;5112773;28;20242;-47
2023/04/15 00:08:14;;;;;;;8.40;6.37;;;;;;;13.48;49.24;93880.28;5112531;28;20584;-47
2023/04/15 00:10:43;;;;;;;8.17;6.57;;;;;;;13.48;49.39;93877.69;5112537;28;20193;-47
2023/04/15 00:13:09;;;;;;;10.73;5.57;;;;;;;13.48;49.65;93872.56;5112246;28;20193;-46
2023/04/15 00:15:36;;;;;;;9.80;6.07;;;;;;;13.43;49.61;93863.81;5112616;28;20196;-48
2023/04/15 00:18:04;;;;;;;9.57;5.90;;;;;;;13.46;49.90;93876.28;5112104;28;20200;-47
2023/04/15 00:20:32;;;;;;;7.37;5.40;;;;;;;13.44;50.06;93876.47;5112538;28;20666;-47
2023/04/15 00:22:59;;;;;;;9.83;6.27;;;;;;;13.40;50.21;93869.28;5112117;28;20666;-47
2023/04/15 00:25:26;;;;;;;10.27;6.27;;;;;;;13.43;50.43;93874.88;5112356;28;20277;-47
2023/04/15 00:27:53;;;;;;;7.07;4.97;;;;;;;13.40;50.49;93866.72;5112046;28;20200;-47
2023/04/15 00:30:20;;;;;;;9.10;5.67;;;;;;;13.43;50.53;93871.50;5111976;28;20269;-48
2023/04/15 00:32:47;;;;;;;10.60;5.97;;;;;;;13.42;50.77;93875.81;5111541;28;20701;-46
2023/04/15 00:35:14;;;;;;;8.60;5.93;;;;;;;13.40;50.88;93880.34;5112137;28;20189;-48
2023/04/15 00:37:42;;;;;;;8.20;5.17;;;;;;;13.39;50.87;93875.38;5111920;28;20193;-47
2023/04/15 00:40:12;;;;;;;6.73;5.27;;;;;;;13.33;51.07;93858.09;5111973;28;20218;-47
2023/04/15 00:42:39;;;;;;;8.17;5.70;;;;;;;13.43;50.92;93874.06;5111631;28;20189;-49
2023/04/15 00:45:07;;;;;;;8.23;4.90;;;;;;;13.45;51.27;93875.47;5112004;28;20192;-47
2023/04/15 00:47:36;;;;;;;6.57;5.00;;;;;;;13.45;51.26;93867.78;5111764;28;20695;-49
2023/04/15 00:50:03;;;;;;;7.47;5.30;;;;;;;13.44;51.47;93865.38;5111505;28;20193;-47
2023/04/15 00:52:30;;;;;;;8.47;5.03;;;;;;;13.46;51.31;93873.69;5111888;28;20626;-48
2023/04/15 00:54:59;;;;;;;10.10;5.97;;;;;;;13.45;51.30;93870.34;5111602;28;20216;-48
2023/04/15 00:57:28;;;;;;;7.33;4.80;;;;;;;13.44;51.85;93875.66;5111940;28;20189;-47
2023/04/15 00:59:56;;;;;;;9.30;4.80;;;;;;;13.42;51.92;93878.38;5111595;28;20197;-47
2023/04/15 01:02:23;;;;;;;7.03;5.23;;;;;;;13.33;51.65;93870.94;5111603;28;20220;-47
2023/04/15 01:04:50;;;;;;;7.27;4.63;;;;;;;13.41;52.03;93883.69;5111633;28;20193;-47
2023/04/15 01:07:17;;;;;;;8.53;4.43;;;;;;;13.40;51.63;93889.81;5111198;28;20738;-47
2023/04/15 01:09:44;;;;;;;6.17;4.90;;;;;;;13.39;51.96;93889.03;5111253;28;20579;-47
2023/04/15 01:12:15;;;;;;;6.03;4.60;;;;;;;13.40;52.00;93889.81;5111480;28;20189;-47
2023/04/15 01:14:42;;;;;;;7.20;4.67;;;;;;;13.40;52.00;93892.38;5110963;28;20196;-48
2023/04/15 01:17:09;;;;;;;6.60;4.37;;;;;;;13.38;52.12;93889.97;5111614;28;20261;-47
2023/04/15 01:19:36;;;;;;;8.60;4.97;;;;;;;13.37;52.26;93885.81;5111070;28;20559;-47
2023/04/15 01:22:04;;;;;;;8.63;5.17;;;;;;;13.33;52.19;93873.50;5111157;28;20242;-47
2023/04/15 01:24:32;;;;;;;7.07;4.80;;;;;;;13.35;52.40;93881.84;5111039;28;20280;-47
2023/04/15 01:27:00;;;;;;;7.33;4.40;;;;;;;13.34;52.26;93880.22;5111071;28;20301;-46
2023/04/15 01:29:27;;;;;;;7.50;5.20;;;;;;;13.31;52.50;93868.56;5110849;28;20189;-46
2023/04/15 01:31:56;;;;;;;6.07;4.33;;;;;;;12.83;52.59;93796.13;5110703;28;20193;-47
2023/04/15 01:34:23;;;;;;;7.67;4.63;;;;;;;13.25;52.63;93869.22;5111134;28;20193;-46
2023/04/15 01:36:50;;;;;;;8.67;4.87;;;;;;;13.24;52.74;93872.78;5110681;28;20193;-47
2023/04/15 01:39:16;;;;;;;6.80;4.07;;;;;;;13.21;53.11;93866.22;5110763;28;20529;-46
2023/04/15 01:41:43;;;;;;;7.37;4.67;;;;;;;13.18;53.06;93879.38;5110633;28;20211;-47
2023/04/15 01:44:11;;;;;;;7.77;5.10;;;;;;;13.14;53.39;93885.84;5110599;28;20195;-46
2023/04/15 01:46:38;;;;;;;6.90;4.83;;;;;;;13.12;53.31;93877.50;5110473;28;20719;-47
2023/04/15 01:49:05;;;;;;;4.77;3.93;;;;;;;13.08;53.54;93881.38;5110655;28;20704;-46
2023/04/15 01:51:32;;;;;;;6.07;4.40;;;;;;;13.05;53.52;93890.22;5110435;28;20195;-48
2023/04/15 01:53:59;;;;;;;10.13;4.40;;;;;;;13.01;53.44;93891.56;5110510;28;20192;-47
2023/04/15 01:56:25;;;;;;;6.53;4.20;;;;;;;13.01;53.66;93901.03;5110551;28;20197;-48
2023/04/15 01:58:53;;;;;;;6.40;4.40;;;;;;;12.95;54.04;93899.94;5111045;28;20676;-47
2023/04/15 02:01:21;;;;;;;6.63;4.30;;;;;;;12.95;53.92;93899.13;5110053;28;20196;-47
2023/04/15 02:03:48;;;;;;;6.30;4.03;;;;;;;12.93;54.02;93904.44;5110659;28;20192;-48
2023/04/15 02:06:15;;;;;;;6.20;4.10;;;;;;;12.90;53.91;93902.22;5110024;28;20220;-46
2023/04/15 02:08:42;;;;;;;5.47;3.80;;;;;;;12.88;54.21;93899.03;5110027;28;20705;-47
2023/04/15 02:11:08;;;;;;;6.00;3.60;;;;;;;12.47;54.22;93835.16;5110177;28;20707;-47
2023/04/15 02:13:35;;;;;;;6.43;3.60;;;;;;;12.71;54.20;93862.41;5109804;28;20203;-47
2023/04/15 02:16:03;;;;;;;7.63;4.10;;;;;;;12.82;54.39;93884.28;5110151;28;20197;-47
2023/04/15 02:18:31;;;;;;;6.77;4.30;;;;;;;12.82;54.46;93881.72;5109992;28;20246;-48
2023/04/15 02:20:58;;;;;;;5.27;4.30;;;;;;;12.74;54.78;93871.56;5110082;28;20195;-47
2023/04/15 02:23:25;;;;;;;5.53;4.23;;;;;;;12.78;54.79;93883.06;5109850;28;20299;-46
2023/04/15 02:25:51;;;;;;;6.60;4.10;;;;;;;12.72;54.92;93879.41;5109257;28;20193;-47
2023/04/15 02:28:18;;;;;;;5.97;4.27;;;;;;;12.72;54.86;93879.41;5109588;28;20221;-46
2023/04/15 02:30:47;;;;;;;5.33;3.87;;;;;;;12.67;55.17;93879.13;5109434;28;20285;-47
2023/04/15 02:33:15;;;;;;;4.30;3.90;;;;;;;12.67;55.04;93891.94;5109555;28;20188;-47
2023/04/15 02:35:44;;;;;;;5.37;3.90;;;;;;;12.64;55.20;93889.72;5109987;28;20212;-47
2023/04/15 02:38:11;;;;;;;4.83;4.17;;;;;;;12.62;55.17;93899.34;5109431;28;20836;-46
2023/04/15 02:40:38;;;;;;;4.43;3.97;;;;;;;12.53;55.27;93883.22;5109735;28;20220;-46
2023/04/15 02:43:05;;;;;;;5.03;3.97;;;;;;;12.54;55.28;93892.50;5109540;28;20250;-46
2023/04/15 02:45:32;;;;;;;6.27;3.97;;;;;;;12.50;55.50;93891.25;5109645;28;20272;-46
2023/04/15 02:48:02;;;;;;;5.87;3.73;;;;;;;12.51;55.57;93894.59;5109375;28;20595;-47
2023/04/15 02:50:30;;;;;;;5.13;3.67;;;;;;;12.47;55.53;93891.56;5109547;28;20196;-46
2023/04/15 02:53:00;;;;;;;4.03;3.20;;;;;;;12.45;55.72;93890.16;5109492;28;20624;-47
2023/04/15 02:55:26;;;;;;;4.90;3.47;;;;;;;12.43;56.01;93910.03;5109296;28;20246;-48
2023/04/15 02:57:53;;;;;;;6.07;3.63;;;;;;;12.40;55.88;93900.91;5109556;28;20196;-47
2023/04/15 03:00:20;;;;;;;8.10;3.90;;;;;;;12.39;56.01;93898.50;5109066;28;20196;-47
2023/04/15 03:02:50;;;;;;;6.50;3.73;;;;;;;12.35;55.96;93898.06;5109520;28;20629;-47
2023/04/15 03:05:17;;;;;;;5.10;3.57;;;;;;;12.34;56.13;93903.34;5109086;28;20681;-48
2023/04/15 03:07:44;;;;;;;5.77;3.77;;;;;;;12.29;55.99;93912.34;5109290;28;20220;-47
2023/04/15 03:10:12;;;;;;;5.80;3.90;;;;;;;12.26;56.29;93904.16;5108981;28;20216;-46
2023/04/15 03:12:39;;;;;;;6.73;4.07;;;;;;;12.24;56.37;93906.13;5109666;28;20199;-47
2023/04/15 03:15:07;;;;;;;4.50;3.60;;;;;;;12.05;56.26;93890.19;5109316;28;20741;-47
2023/04/15 03:17:34;;;;;;;7.17;4.47;;;;;;;12.19;56.21;93916.06;5109355;28;20246;-47
2023/04/15 03:20:01;;;;;;;8.00;4.40;;;;;;;12.16;56.26;93922.31;5108980;28;20754;-48
2023/04/15 03:22:28;;;;;;;6.20;4.43;;;;;;;12.14;56.25;93926.84;5109020;28;20196;-47
2023/04/15 03:24:55;;;;;;;7.43;4.70;;;;;;;12.11;56.26;93916.91;5109127;28;20193;-46
2023/04/15 03:27:23;;;;;;;7.13;4.63;;;;;;;12.08;56.45;93922.34;5109243;28;20225;-47
2023/04/15 03:29:50;;;;;;;8.33;4.60;;;;;;;12.01;56.29;93926.56;5108969;28;20189;-47
2023/04/15 03:32:17;;;;;;;7.57;5.37;;;;;;;12.02;56.35;93925.59;5108922;28;20188;-46
2023/04/15 03:34:44;;;;;;;5.63;4.50;;;;;;;12.00;56.41;93930.06;5109147;28;20212;-47
2023/04/15 03:37:11;;;;;;;6.00;4.67;;;;;;;11.95;56.37;93928.00;5111944;28;20274;-48
2023/04/15 03:39:38;;;;;;;6.43;4.77;;;;;;;11.96;56.51;93934.75;5113164;28;20189;-46
2023/04/15 03:42:04;;;;;;;5.07;4.57;;;;;;;11.94;56.45;93940.97;5112520;28;20188;-46
2023/04/15 03:44:33;;;;;;;7.07;4.90;;;;;;;11.93;56.57;93947.88;5113184;28;20588;-46
2023/04/15 03:46:59;;;;;;;7.33;5.17;;;;;;;11.92;56.62;93956.53;5112645;28;20224;-47
2023/04/15 03:49:26;;;;;;;7.20;5.10;;;;;;;11.87;56.44;93960.53;5113157;28;20276;-47
2023/04/15 03:51:53;;;;;;;6.27;4.80;;;;;;;11.90;56.68;93965.31;5112583;28;20196;-47
2023/04/15 03:54:20;;;;;;;5.37;4.63;;;;;;;11.87;56.59;93966.44;5112806;28;20200;-47
2023/04/15 03:56:46;;;;;;;5.77;4.77;;;;;;;11.88;56.51;93964.72;5113014;28;20196;-47
2023/04/15 03:59:13;;;;;;;6.77;4.63;;;;;;;11.89;56.48;93964.53;5113049;28;20188;-48
2023/04/15 04:01:41;;;;;;;9.23;4.93;;;;;;;11.88;56.54;93960.38;5113129;28;20747;-47
2023/04/15 04:04:08;;;;;;;8.43;5.23;;;;;;;11.91;56.64;93961.78;5112672;28;20196;-46
2023/04/15 04:06:35;;;;;;;8.17;5.87;;;;;;;11.92;56.55;93971.91;5112789;28;20645;-47
2023/04/15 04:09:02;;;;;;;7.63;4.87;;;;;;;11.93;56.46;93972.69;5112208;28;20228;-48
2023/04/15 04:11:29;;;;;;;6.73;5.27;;;;;;;11.96;56.46;93970.63;5112372;28;20176;-46
2023/04/15 04:13:55;;;;;;;9.13;5.57;;;;;;;11.97;56.39;93968.84;5112453;28;20189;-47
2023/04/15 04:16:22;;;;;;;10.00;5.27;;;;;;;11.98;56.37;93967.88;5112633;28;20189;-47
2023/04/15 04:18:50;;;;;;;8.70;5.37;;;;;;;12.04;56.31;93972.34;5112181;28;20193;-46
2023/04/15 04:21:17;;;;;;;7.30;5.17;;;;;;;12.09;56.11;93964.97;5112482;28;20200;-47
2023/04/15 04:23:44;;;;;;;7.53;5.43;;;;;;;12.24;56.01;93965.88;5112265;28;20257;-46
2023/04/15 04:26:11;;;;;;;7.20;4.93;;;;;;;12.47;55.86;93967.69;5112197;28;20193;-46
2023/04/15 04:28:39;;;;;;;5.90;5.13;;;;;;;12.63;55.32;93951.44;5111909;28;20224;-46
2023/04/15 04:31:06;;;;;;;9.13;5.33;;;;;;;13.09;54.70;93956.63;5112333;28;20189;-47
2023/04/15 04:33:33;;;;;;;7.43;5.00;;;;;;;13.55;53.66;93965.13;5112348;28;20193;-47
2023/04/15 04:36:01;;;;;;;8.53;5.50;;;;;;;14.08;53.37;93965.94;5112101;28;20200;-46
2023/04/15 04:38:28;;;;;;;5.53;4.90;;;;;;;14.63;53.18;93969.00;5112064;28;20204;-47
2023/04/15 04:40:55;;;;;;;5.83;4.70;;;;;;;15.08;52.71;93957.63;5111973;28;20204;-47
2023/04/15 04:43:22;;;;;;;7.17;4.67;;;;;;;15.78;51.97;93972.34;5112246;28;20185;-47
2023/04/15 04:45:48;;;;;;;6.47;5.07;;;;;;;16.36;51.48;93972.09;5112065;28;20199;-48
2023/04/15 04:48:15;;;;;;;8.00;4.73;;;;;;;16.93;50.85;93977.94;5111393;28;20228;-47
2023/04/15 04:50:43;;;;;;;7.07;4.60;;;;;;;17.45;50.15;93982.44;5111697;28;20223;-47
2023/04/15 04:53:11;;;;;;;6.03;5.10;;;;;;;17.76;49.37;93960.38;5111566;28;20185;-48
2023/04/15 04:55:38;;;;;;;7.47;5.17;;;;;;;18.28;48.95;93989.78;5111465;28;20245;-47
2023/04/15 04:58:05;;;;;;;5.37;4.37;;;;;;;18.54;48.64;93994.09;5111554;28;20192;-47
2023/04/15 05:00:32;;;;;;;4.93;4.40;;;;;;;18.71;48.27;94003.06;5111300;28;20518;-47
2023/04/15 05:02:59;;;;;;;7.37;5.13;;;;;;;18.83;47.90;94007.59;5111480;28;20638;-47
2023/04/15 05:05:26;;;;;;;7.17;5.00;;;;;;;18.91;47.42;94009.94;5111281;28;20200;-55
2023/04/15 05:07:53;;;;;;;8.40;5.80;;;;;;;18.95;47.14;94017.09;5111422;28;20216;-47
2023/04/15 05:10:21;;;;;;;9.30;6.13;;;;;;;18.96;46.96;94021.31;5111374;28;20232;-47
2023/04/15 05:12:48;;;;;;;7.00;5.63;;;;;;;19.04;46.56;94023.66;5111452;28;20637;-47
2023/04/15 05:15:15;;;;;;;7.47;5.50;;;;;;;19.19;46.21;94028.56;5111443;28;20288;-48
2023/04/15 05:17:42;;;;;;;8.50;5.30;;;;;;;19.46;45.44;94031.00;5092880;28;20193;-48
2023/04/15 05:20:09;;;;;;;6.77;5.30;;;;;;;19.91;44.65;94033.56;5111576;28;20200;-47
2023/04/15 05:22:37;;;;;;;5.33;4.60;;;;;;;20.55;44.08;94035.00;5110819;28;20224;-47
2023/04/15 05:25:04;;;;;;;6.13;5.37;;;;;;;21.24;43.49;94027.84;5111501;28;20193;-47
2023/04/15 05:27:32;;;;;;;6.80;5.00;;;;;;;22.06;42.96;94025.50;5110945;28;20589;-46
2023/04/15 05:30:00;;;;;;;4.90;4.13;;;;;;;22.89;42.28;94034.13;5111228;28;20200;-48
2023/04/15 05:32:26;;;;;;;6.03;4.30;;;;;;;23.74;41.37;94028.97;5110749;28;20189;-47
2023/04/15 05:34:53;;;;;;;5.68;4.30;;;;;;;24.62;40.46;94036.38;5111398;28;20189;-47
2023/04/15 05:37:21;;;;;;;5.35;4.20;;;;;;;25.51;40.07;94023.06;5110778;28;20209;-46
2023/04/15 05:39:48;;;;;;;5.35;3.83;;;;;;;26.40;39.29;94024.38;5111082;28;20195;-47
2023/04/15 05:42:15;;;;;;;5.45;3.90;;;;;;;27.29;38.26;94025.38;5110770;28;20208;-47
2023/04/15 05:44:45;;;;;;;4.28;3.63;;;;;;;28.19;37.37;94031.06;5111137;28;20246;-48
2023/04/15 05:47:12;;;;;;;4.70;4.03;;;;;;;28.98;36.91;94022.56;5110700;28;20185;-47
2023/04/15 05:49:39;;;;;;;3.97;3.53;;;;;;;29.88;36.17;94026.06;5110896;28;20267;-47
2023/04/15 05:52:06;;;;;;;4.32;3.58;;;;;;;30.69;35.12;94037.81;5110477;28;20200;-47
2023/04/15 05:54:33;;;;;;;6.68;3.58;;;;;;;31.45;34.84;94030.94;5110446;28;20254;-47
2023/04/15 05:56:59;;;;;;;3.65;3.35;;;;;;;32.18;34.11;94034.97;5110534;28;20200;-48
2023/04/15 05:59:27;;;;;;;5.18;3.58;;;;;;;32.89;33.50;94054.94;5109419;28;20196;-47
2023/04/15 06:01:55;;;;;;;7.25;3.58;;;;;;;33.60;33.07;94052.03;5110536;28;20678;-49
2023/04/15 06:04:22;;;;;;;4.85;3.10;;;;;;;34.25;32.18;94045.56;5110114;28;20188;-47
2023/04/15 06:06:49;;;;;;;6.35;3.67;;;;;;;34.87;31.66;94053.59;5110191;28;20212;-48
2023/04/15 06:09:16;;;;;;;3.85;3.33;;;;;;;35.44;31.20;94049.09;5109904;28;20236;-49
2023/04/15 06:11:43;;;;;;;4.40;3.25;;;;;;;35.73;30.61;94012.41;5110592;28;20208;-48
2023/04/15 06:14:10;;;;;;;3.28;2.97;;;;;;;36.56;30.17;94057.50;5110017;28;20189;-48
2023/04/15 06:16:36;;;;;;;4.38;3.33;;;;;;;37.06;29.80;94060.34;5110458;28;20265;-47
2023/04/15 06:19:05;;;;;;;4.45;2.88;;;;;;;37.55;29.23;94066.09;5110051;28;20192;-48
2023/04/15 06:21:31;;;;;;;5.93;3.15;;;;;;;38.00;29.10;94073.53;5109976;28;20185;-48
2023/04/15 06:24:00;;;;;;;3.17;2.83;;;;;;;38.41;28.80;94069.28;5110325;28;20220;-48
2023/04/15 06:26:27;;;;;;;3.50;2.80;;;;;;;38.85;28.35;94080.31;5110403;28;20248;-48
2023/04/15 06:28:53;;;;;;;3.33;2.97;;;;;;;39.19;27.87;94084.50;5110412;28;20307;-48
2023/04/15 06:31:20;;;;;;;3.30;2.85;;;;;;;39.53;27.92;94088.66;5109561;28;20193;-49
2023/04/15 06:33:47;;;;;;;5.45;3.15;;;;;;;39.86;27.67;94085.09;5110052;28;20244;-48
2023/04/15 06:36:15;;;;;;;5.53;3.15;;;;;;;40.10;27.52;94078.91;5109661;28;20188;-47
2023/04/15 06:38:42;;;;;;;3.00;2.70;;;;;;;40.27;27.19;94067.13;5110137;28;20189;-48
2023/04/15 06:41:09;;;;;;;6.00;2.80;;;;;;;40.80;27.08;94102.63;5109822;28;20653;-50
2023/04/15 06:43:36;;;;;;;2.78;2.55;;;;;;;41.08;26.66;94099.94;5110258;28;20619;-47
2023/04/15 06:46:03;;;;;;;3.88;2.72;;;;;;;41.35;26.24;94104.44;5109701;28;20625;-48
2023/04/15 06:48:29;;;;;;;3.53;3.13;;;;;;;41.59;25.81;94108.88;5110123;28;20212;-51
2023/04/15 06:50:57;;;;;;;4.88;2.83;;;;;;;41.83;26.25;94112.47;5109590;28;20196;-50
2023/04/15 06:53:25;;;;;;;3.80;2.65;;;;;;;42.06;25.79;94099.94;5109903;28;20192;-48
2023/04/15 06:55:52;;;;;;;3.15;2.83;;;;;;;42.25;25.54;94101.13;5109494;28;20189;-48
2023/04/15 06:58:18;;;;;;;3.33;2.80;;;;;;;42.46;25.35;94103.44;5109682;28;20196;-50
2023/04/15 07:00:45;;;;;;;4.70;3.17;;;;;;;42.54;25.45;94083.63;5109659;28;20565;-48
2023/04/15 07:03:13;;;;;;;3.15;2.40;;;;;;;42.80;25.12;94099.91;5109610;28;20295;-49
2023/04/15 07:05:41;;;;;;;5.57;2.95;;;;;;;42.98;25.36;94089.44;5109858;28;20185;-48
2023/04/15 07:08:08;;;;;;;5.75;2.75;;;;;;;43.12;25.20;94094.31;5109764;28;20318;-49
2023/04/15 07:10:36;;;;;;;5.00;2.88;;;;;;;42.94;24.66;94071.69;5109903;28;20189;-49
2023/04/15 07:13:04;;;;;;;4.85;2.92;;;;;;;42.99;25.16;94092.91;5109656;28;20192;-50
2023/04/15 07:15:31;;;;;;;4.50;3.25;;;;;;;42.91;25.04;94092.00;5109476;28;20283;-49
2023/04/15 07:17:58;;;;;;;5.10;3.13;;;;;;;42.83;24.84;94099.16;5109284;28;20188;-51
2023/04/15 07:20:24;;;;;;;3.95;2.60;;;;;;;42.82;25.36;94099.53;5109310;28;20215;-48
2023/04/15 07:22:51;;;;;;;4.82;3.15;;;;;;;42.84;24.63;94099.97;5109332;28;20196;-49
2023/04/15 07:25:18;;;;;;;4.47;3.15;;;;;;;42.88;25.03;94100.81;5109823;28;20199;-49
2023/04/15 07:27:46;;;;;;;5.97;3.00;;;;;;;42.60;25.14;94085.66;5109173;28;20656;-50
2023/04/15 07:30:13;;;;;;;5.13;2.70;;;;;;;42.49;25.30;94105.41;5109376;28;20684;-50
2023/04/15 07:32:41;;;;;;;5.10;3.00;;;;;;;42.45;24.86;94104.59;5109085;28;20192;-49
2023/04/15 07:35:09;;;;;;;4.97;2.92;;;;;;;42.47;24.60;94108.47;5109521;28;20330;-49
2023/04/15 07:37:36;;;;;;;4.00;2.75;;;;;;;42.09;24.79;94079.63;5109245;28;20220;-49
2023/04/15 07:40:05;;;;;;;4.60;2.50;;;;;;;42.06;24.91;94097.25;5109073;28;20192;-50
2023/04/15 07:42:32;;;;;;;4.10;3.03;;;;;;;41.83;25.12;94093.69;5109261;28;20566;-50
2023/04/15 07:45:00;;;;;;;3.70;2.70;;;;;;;41.57;24.98;94097.69;5108997;28;20388;-49
2023/04/15 07:47:27;;;;;;;3.53;2.80;;;;;;;41.29;25.32;94091.63;5109167;28;20192;-50
2023/04/15 07:49:54;;;;;;;7.63;3.13;;;;;;;41.25;25.10;94110.34;5108887;28;20708;-49
2023/04/15 07:52:21;;;;;;;5.00;2.75;;;;;;;41.15;25.15;94107.38;5109001;28;20682;-49
2023/04/15 07:54:48;;;;;;;4.30;2.72;;;;;;;40.97;25.54;94099.66;5109004;28;20566;-48
2023/04/15 07:57:15;;;;;;;3.30;2.70;;;;;;;40.93;25.40;94106.81;5109060;28;20621;-49
2023/04/15 07:59:42;;;;;;;3.67;2.50;;;;;;;40.85;25.15;94113.91;5108824;28;20201;-48
2023/04/15 08:02:11;;;;;;;2.63;2.42;;;;;;;40.82;25.08;94130.69;5109034;28;20200;-48
2023/04/15 08:04:38;;;;;;;3.97;2.35;;;;;;;40.77;25.63;94124.81;5108782;28;20193;-51
2023/04/15 08:07:04;;;;;;;4.22;2.45;;;;;;;40.72;25.46;94120.47;5109345;28;20247;-49
2023/04/15 08:09:31;;;;;;;3.50;2.60;;;;;;;40.66;25.20;94121.81;5108325;28;20233;-48
2023/04/15 08:11:58;;;;;;;2.97;2.28;;;;;;;40.62;25.49;94120.94;5109143;28;20201;-49
2023/04/15 08:14:25;;;;;;;3.60;2.67;;;;;;;40.49;25.28;94114.81;5108758;28;20189;-48
2023/04/15 08:16:51;;;;;;;4.00;2.30;;;;;;;40.37;25.50;94115.66;5108601;28;20189;-48
2023/04/15 08:19:20;;;;;;;4.80;2.40;;;;;;;40.21;25.33;94114.06;5108917;28;20246;-49
2023/04/15 08:21:47;;;;;;;4.43;2.47;;;;;;;40.10;25.15;94114.50;5108708;28;20213;-47
2023/04/15 08:24:14;;;;;;;3.22;2.20;;;;;;;40.05;25.09;94117.41;5111782;28;20189;-49
2023/04/15 08:26:41;;;;;;;2.28;2.08;;;;;;;40.01;25.19;94121.88;5112085;28;20193;-49
2023/04/15 08:29:08;;;;;;;3.75;1.98;;;;;;;39.97;24.81;94101.47;5112406;28;20216;-51
2023/04/15 08:31:34;;;;;;;1.75;1.65;;;;;;;40.05;24.97;94111.25;5111879;28;20691;-49
2023/04/15 08:34:01;;;;;;;2.38;2.17;;;;;;;40.01;24.87;94108.47;5112834;28;20192;-48
2023/04/15 08:36:31;;;;;;;2.92;2.03;;;;;;;40.02;24.86;94123.41;5111982;28;20196;-48
2023/04/15 08:38:57;;;;;;;2.05;1.80;;;;;;;39.98;24.92;94106.47;5111979;28;20225;-49
2023/04/15 08:41:26;;;;;;;2.20;2.00;;;;;;;39.88;24.90;94094.31;5111988;28;20185;-49
2023/04/15 08:43:56;;;;;;;3.72;2.00;;;;;;;39.78;24.85;94105.50;5112118;28;20215;-48
2023/04/15 08:46:23;;;;;;;3.17;2.20;;;;;;;39.52;25.04;94094.34;5111497;28;20189;-49
2023/04/15 08:48:51;;;;;;;2.42;1.60;;;;;;;39.17;25.14;94094.75;5112127;28;20220;-47
2023/04/15 08:51:18;;;;;;;5.03;1.70;;;;;;;38.80;25.43;94097.38;5112054;28;20273;-48
2023/04/15 08:53:46;;;;;;;5.25;2.00;;;;;;;38.36;25.48;94088.19;5111974;28;20193;-48
2023/04/15 08:56:15;;;;;;;2.22;2.03;;;;;;;38.00;25.11;94084.22;5112018;28;20197;-49
2023/04/15 08:58:42;;;;;;;2.67;1.80;;;;;;;37.71;25.39;94089.56;5111601;28;20189;-50
2023/04/15 09:01:09;;;;;;;2.17;2.00;;;;;;;37.29;25.21;94092.09;5111816;28;20258;-50
2023/04/15 09:03:37;;;;;;;2.08;1.70;;;;;;;36.95;25.43;94090.34;5111863;28;20185;-49
2023/04/15 09:06:04;;;;;;;3.60;2.03;;;;;;;36.58;25.44;94077.41;5112873;28;20189;-49
2023/04/15 09:08:31;;;;;;;2.78;2.03;;;;;;;36.26;25.72;94077.88;5111713;28;20239;-48
2023/04/15 09:10:59;;;;;;;3.08;1.50;;;;;;;36.01;25.50;94082.91;5111904;28;20189;-49
2023/04/15 09:13:26;;;;;;;3.00;1.77;;;;;;;35.64;25.54;94049.66;5110962;28;20189;-48
2023/04/15 09:15:54;;;;;;;1.88;1.67;;;;;;;35.62;25.60;94071.25;5111854;28;20181;-49
2023/04/15 09:18:31;;;;;;;2.42;1.80;;;;;;;35.47;25.46;94060.22;5111130;28;20258;-48
2023/04/15 09:21:05;;;;;;;1.63;1.52;;;;;;;35.30;25.69;94055.66;5111421;28;20199;-48
2023/04/15 09:23:33;;;;;;;2.65;1.75;;;;;;;35.14;25.54;94066.69;5110652;28;20649;-47
2023/04/15 09:26:01;;;;;;;2.92;1.50;;;;;;;34.95;25.29;94066.91;5111309;28;20223;-48
2023/04/15 09:28:28;;;;;;;2.25;1.60;;;;;;;34.69;25.79;94064.13;5110661;28;20260;-48
2023/04/15 09:30:56;;;;;;;2.60;1.35;;;;;;;34.40;25.40;94071.72;5110989;28;20212;-51
2023/04/15 09:33:25;;;;;;;2.15;1.40;;;;;;;34.13;25.34;94072.63;5110782;28;20189;-49
2023/04/15 09:36:00;;;;;;;2.58;1.50;;;;;;;33.83;25.20;94068.78;5110985;28;20192;-47
2023/04/15 09:38:26;;;;;;;1.20;1.10;;;;;;;33.69;25.51;94063.50;5110618;28;20204;-48
2023/04/15 09:40:54;;;;;;;1.50;1.40;;;;;;;33.38;25.54;94045.56;5110899;28;20197;-49
2023/04/15 09:43:22;;;;;;;2.30;1.65;;;;;;;33.19;25.19;94035.06;5110699;28;20188;-49
2023/04/15 09:45:50;;;;;;;1.50;1.40;;;;;;;33.15;24.72;94052.63;5110907;28;20193;-48
2023/04/15 09:48:20;;;;;;;1.55;1.30;;;;;;;32.97;24.83;94051.63;5110384;28;20208;-50
2023/04/15 09:50:48;;;;;;;1.38;1.27;;;;;;;32.85;25.06;94045.22;5110918;28;20185;-48
2023/04/15 09:53:19;;;;;;;3.92;1.80;;;;;;;32.69;24.86;94050.81;5110443;28;20288;-48
2023/04/15 09:55:49;;;;;;;1.27;1.17;;;;;;;32.52;25.06;94058.53;5110506;28;20196;-47
2023/04/15 09:58:20;;;;;;;1.48;1.23;;;;;;;32.24;25.13;94052.31;5110260;28;20642;-48
2023/04/15 10:00:50;;;;;;;1.70;1.20;;;;;;;32.10;25.50;94075.28;5110575;28;20220;-50
2023/04/15 10:03:21;;;;;;;4.45;1.42;;;;;;;31.83;25.57;94062.72;5110174;28;20274;-51
2023/04/15 10:05:50;;;;;;;2.47;1.40;;;;;;;31.72;25.75;94051.47;5110454;28;20519;-50
2023/04/15 10:08:18;;;;;;;1.35;1.25;;;;;;;31.57;25.60;94073.63;5109777;28;20603;-47
2023/04/15 10:10:46;;;;;;;1.30;1.23;;;;;;;31.43;25.31;94067.44;5110640;28;20281;-48
2023/04/15 10:13:15;;;;;;;1.77;1.42;;;;;;;31.36;25.28;94059.09;5110335;28;20189;-49
2023/04/15 10:15:44;;;;;;;1.63;1.40;;;;;;;31.30;25.63;94044.34;5110564;28;20232;-48
2023/04/15 10:18:16;;;;;;;1.70;1.40;;;;;;;31.30;25.26;94047.78;5110640;28;20673;-47
2023/04/15 10:20:43;;;;;;;1.38;1.27;;;;;;;31.27;25.42;94044.91;5110714;28;20204;-49
2023/04/15 10:23:12;;;;;;;1.58;1.20;;;;;;;31.23;25.55;94034.88;5110527;28;20192;-48
2023/04/15 10:25:39;;;;;;;1.50;1.40;;;;;;;31.26;25.42;94030.88;5110218;28;20212;-49
2023/04/15 10:28:07;;;;;;;1.25;1.15;;;;;;;31.29;25.55;94040.13;5110460;28;20193;-49
2023/04/15 10:30:33;;;;;;;1.23;1.20;;;;;;;31.29;25.13;94040.91;5109764;28;20249;-47
2023/04/15 10:33:01;;;;;;;1.67;1.25;;;;;;;31.24;25.21;94033.81;5110145;28;20581;-49
2023/04/15 10:35:31;;;;;;;1.30;1.20;;;;;;;31.11;25.47;94031.84;5109772;28;20193;-50
2023/04/15 10:37:59;;;;;;;2.28;1.45;;;;;;;30.98;25.50;94033.31;5109943;28;20657;-48
2023/04/15 10:40:30;;;;;;;1.92;1.45;;;;;;;30.90;25.62;94028.66;5109730;28;20705;-48
2023/04/15 10:42:58;;;;;;;1.17;1.08;;;;;;;30.85;25.62;94025.28;5110119;28;20284;-50
2023/04/15 10:45:27;;;;;;;1.30;1.20;;;;;;;30.80;25.82;94030.63;5109038;27;20583;-49
2023/04/15 10:47:55;;;;;;;2.30;1.33;;;;;;;30.76;25.43;94030.41;5109741;28;20676;-49
2023/04/15 10:50:22;;;;;;;4.45;1.10;;;;;;;30.68;25.78;94018.56;5109320;28;20228;-49
2023/04/15 10:52:52;;;;;;;2.47;1.20;;;;;;;30.63;25.45;94010.69;5109895;28;20226;-47
2023/04/15 10:55:21;;;;;;;2.42;1.30;;;;;;;30.59;26.01;94022.09;5109463;28;20185;-49
2023/04/15 10:57:52;;;;;;;1.33;1.10;;;;;;;30.52;25.41;94013.72;5109518;28;20673;-50
2023/04/15 11:00:21;;;;;;;1.83;1.45;;;;;;;30.54;25.75;94006.31;5109318;28;20619;-48
2023/04/15 11:02:52;;;;;;;2.58;1.15;;;;;;;30.49;25.48;94013.22;5109404;28;20299;-48
2023/04/15 11:05:20;;;;;;;2.10;1.60;;;;;;;30.40;25.81;94001.69;5109767;28;20189;-47
2023/04/15 11:08:06;;;;;;;2.10;1.42;;;;;;;30.38;25.52;94006.44;5109116;28;20655;-48
2023/04/15 11:10:55;;;;;;;1.20;1.20;;;;;;;30.31;25.59;94002.56;5109002;28;20322;-48
2023/04/15 11:13:30;;;;;;;2.05;1.50;;;;;;;30.26;25.98;94006.03;5109168;28;20188;-48
2023/04/15 11:16:00;;;;;;;3.78;1.40;;;;;;;30.16;26.19;94006.91;5109409;28;20188;-49
2023/04/15 11:18:29;;;;;;;1.42;1.33;;;;;;;30.14;25.91;94001.13;5109218;28;20673;-47
2023/04/15 11:20:58;;;;;;;2.05;1.40;;;;;;;30.08;25.79;93996.91;5109198;28;20592;-47
2023/04/15 11:23:32;;;;;;;1.90;1.38;;;;;;;29.90;25.96;93974.66;5109241;28;20333;-48
2023/04/15 11:25:59;;;;;;;1.23;1.23;;;;;;;30.02;25.89;94005.16;5109361;28;20214;-49
2023/04/15 11:28:27;;;;;;;1.52;1.40;;;;;;;29.94;25.94;93999.41;5109352;28;20580;-47
2023/04/15 11:30:55;;;;;;;1.33;1.23;;;;;;;29.87;26.45;94006.06;5108822;28;20252;-48
2023/04/15 11:33:23;;;;;;;1.33;1.23;;;;;;;29.68;26.51;93987.47;5109216;28;20872;-47
2023/04/15 11:35:52;;;;;;;3.95;1.83;;;;;;;29.78;26.17;94000.56;5108888;28;20686;-48